Time;durP1;ratioP1;P1;durP2;ratioP2;P2;SDS_P1;SDS_P2;PMS_P1;PMS_P2;Temp;Humidity;BMP_temperature;BMP_pressure;BME280_temperature;BME280_humidity;BME280_pressure;Samples;Min_cycle;Max_cycle;Signal;HPM_P1;HPM_P2
2022/09/07 00:00:29;;;;;;;9.07;8.20;;;;;;;18.87;100.00;101261.81;5029909;28;20428;-65
2022/09/07 00:02:54;;;;;;;8.20;7.30;;;;;;;18.80;100.00;101260.03;5030029;28;20037;-65
2022/09/07 00:05:19;;;;;;;7.15;6.45;;;;;;;18.72;100.00;101247.78;5029997;28;20021;-64
2022/09/07 00:07:44;;;;;;;6.82;6.13;;;;;;;18.63;100.00;101242.47;5028978;28;20020;-65
2022/09/07 00:10:10;;;;;;;6.13;5.53;;;;;;;18.54;100.00;101248.56;5029643;28;20033;-65
2022/09/07 00:12:35;;;;;;;5.68;5.00;;;;;;;18.52;100.00;101244.16;5029342;28;20443;-64
2022/09/07 00:15:02;;;;;;;6.47;4.80;;;;;;;18.47;100.00;101226.63;5029619;28;20014;-65
2022/09/07 00:17:28;;;;;;;5.00;4.43;;;;;;;18.45;100.00;101217.91;5029208;28;20029;-64
2022/09/07 00:19:54;;;;;;;6.63;4.65;;;;;;;18.38;100.00;101210.88;5029156;28;20095;-65
2022/09/07 00:22:19;;;;;;;4.80;4.40;;;;;;;18.33;100.00;101207.34;5029285;28;20040;-65
2022/09/07 00:24:45;;;;;;;5.65;4.60;;;;;;;18.31;100.00;101206.47;5028819;28;20025;-65
2022/09/07 00:27:10;;;;;;;4.43;3.83;;;;;;;18.22;100.00;101207.28;5028980;28;20029;-64
2022/09/07 00:29:35;;;;;;;5.57;4.10;;;;;;;18.20;100.00;101216.91;5027832;28;20033;-64
2022/09/07 00:32:01;;;;;;;4.55;4.00;;;;;;;18.12;100.00;101209.81;5028947;28;20013;-65
2022/09/07 00:34:26;;;;;;;6.75;3.90;;;;;;;18.05;100.00;101207.13;5028764;28;20544;-65
2022/09/07 00:36:51;;;;;;;6.28;4.20;;;;;;;17.96;100.00;101216.69;5028457;28;20021;-65
2022/09/07 00:39:17;;;;;;;4.32;3.35;;;;;;;17.93;100.00;101214.06;5029281;28;20096;-65
2022/09/07 00:41:42;;;;;;;5.10;3.90;;;;;;;17.84;100.00;101208.75;5034576;28;20046;-64
2022/09/07 00:44:41;;;;;;;5.07;3.83;;;;;;;17.75;100.00;101207.78;5028371;28;20018;-64
2022/09/07 00:47:25;;;;;;;3.88;3.47;;;;;;;17.74;100.00;101207.78;5028744;28;20036;-64
2022/09/07 00:49:56;;;;;;;5.90;4.07;;;;;;;17.71;100.00;101203.41;5028996;28;20489;-64
2022/09/07 00:52:24;;;;;;;3.97;3.58;;;;;;;17.63;100.00;101194.59;5028438;28;20028;-64
2022/09/07 00:54:57;;;;;;;5.45;4.13;;;;;;;17.55;100.00;101186.69;5028572;28;20441;-65
2022/09/07 00:57:22;;;;;;;5.28;4.00;;;;;;;17.46;100.00;101187.50;5028788;28;20147;-64
2022/09/07 00:59:51;;;;;;;5.40;4.13;;;;;;;17.41;100.00;101176.09;5028938;28;20478;-64
2022/09/07 01:02:17;;;;;;;6.10;4.03;;;;;;;17.33;100.00;101162.94;5028651;28;20499;-64
2022/09/07 01:04:47;;;;;;;5.15;4.05;;;;;;;17.27;100.00;101144.53;5027731;28;20033;-64
2022/09/07 01:07:12;;;;;;;4.60;4.07;;;;;;;17.24;100.00;101154.97;5027920;28;20103;-64
2022/09/07 01:09:39;;;;;;;4.40;3.83;;;;;;;17.21;100.00;101165.44;5028118;28;20029;-64
2022/09/07 01:12:05;;;;;;;4.30;4.00;;;;;;;17.20;100.00;101164.53;5028396;28;20026;-64
2022/09/07 01:14:38;;;;;;;4.30;3.95;;;;;;;17.23;100.00;101169.84;5027524;28;20032;-64
2022/09/07 01:17:22;;;;;;;5.13;4.25;;;;;;;17.25;100.00;101168.09;5028446;28;20045;-64
2022/09/07 01:20:24;;;;;;;4.93;4.38;;;;;;;17.25;100.00;101167.22;5014137;28;20028;-64
2022/09/07 01:23:20;;;;;;;4.90;4.10;;;;;;;17.18;100.00;101171.50;5027176;28;20023;-64
2022/09/07 01:26:16;;;;;;;5.03;4.38;;;;;;;17.11;100.00;101173.19;5027721;28;20040;-64
2022/09/07 01:28:42;;;;;;;4.40;3.97;;;;;;;17.05;100.00;101171.34;5027729;28;20025;-64
2022/09/07 01:31:21;;;;;;;3.65;3.35;;;;;;;17.01;100.00;101180.06;5027810;28;20108;-65
2022/09/07 01:34:05;;;;;;;4.15;3.55;;;;;;;17.00;100.00;101186.13;5027953;28;20124;-65
2022/09/07 01:37:03;;;;;;;4.18;3.78;;;;;;;16.98;100.00;101189.59;5027594;28;20281;-64
2022/09/07 01:39:39;;;;;;;4.65;4.15;;;;;;;16.97;100.00;101193.06;5027794;28;20026;-64
2022/09/07 01:42:11;;;;;;;5.15;3.95;;;;;;;16.95;100.00;101179.97;5027519;28;20455;-64
2022/09/07 01:44:40;;;;;;;4.53;4.13;;;;;;;16.94;100.00;101173.00;5027141;28;20079;-64
2022/09/07 01:47:17;;;;;;;7.18;3.83;;;;;;;16.92;100.00;101170.38;5025626;28;20029;-64
2022/09/07 01:49:49;;;;;;;4.43;4.03;;;;;;;16.88;100.00;101173.78;5018449;28;20281;-64
2022/09/07 01:52:27;;;;;;;5.70;4.13;;;;;;;16.86;100.00;101182.47;5028114;28;20116;-64
2022/09/07 01:55:17;;;;;;;4.25;3.92;;;;;;;16.84;100.00;101173.75;5026889;28;20052;-64
2022/09/07 01:57:53;;;;;;;4.82;3.90;;;;;;;16.84;100.00;101176.38;5027764;28;20028;-64
2022/09/07 02:00:19;;;;;;;4.65;3.40;;;;;;;16.78;100.00;101180.66;5027858;28;20037;-64
2022/09/07 02:02:50;;;;;;;4.15;3.65;;;;;;;16.73;100.00;101184.97;5027433;28;20021;-64
2022/09/07 02:05:38;;;;;;;4.45;3.90;;;;;;;16.73;100.00;101177.09;5027303;28;20026;-64
2022/09/07 02:08:19;;;;;;;4.55;3.50;;;;;;;16.73;100.00;101182.34;5026973;28;20555;-64
2022/09/07 02:10:50;;;;;;;;;;;;;;;16.61;100.00;101190.03;5027692;28;20025;-64
2022/09/07 02:13:35;;;;;;;5.38;4.38;;;;;;;16.46;100.00;101183.75;5027197;28;19959;-65
2022/09/07 02:16:06;;;;;;;6.28;4.70;;;;;;;16.38;100.00;101188.91;5025991;28;20056;-64
2022/09/07 02:18:45;;;;;;;4.35;3.95;;;;;;;16.33;100.00;101180.13;5027445;28;20052;-64
2022/09/07 02:21:14;;;;;;;5.28;4.50;;;;;;;16.29;100.00;101168.75;5026340;28;20025;-64
2022/09/07 02:23:45;;;;;;;4.03;3.72;;;;;;;16.29;100.00;101170.47;5027039;28;20032;-64
2022/09/07 02:26:21;;;;;;;5.05;4.55;;;;;;;16.27;100.00;101162.59;5026731;28;20473;-64
2022/09/07 02:28:46;;;;;;;4.68;4.28;;;;;;;16.27;100.00;101160.00;5027402;28;20120;-64
2022/09/07 02:31:12;;;;;;;4.57;4.18;;;;;;;16.25;100.00;101169.53;5026804;28;20120;-64
2022/09/07 02:33:38;;;;;;;5.68;4.82;;;;;;;16.18;100.00;101178.16;5027421;28;20116;-64
2022/09/07 02:36:04;;;;;;;4.65;4.30;;;;;;;16.16;100.00;101180.75;5027138;28;20029;-65
2022/09/07 02:38:31;;;;;;;5.00;4.60;;;;;;;16.16;100.00;101180.75;5026719;28;20048;-64
2022/09/07 02:40:59;;;;;;;5.50;4.68;;;;;;;16.13;100.00;101183.34;5026715;28;20386;-64
2022/09/07 02:43:26;;;;;;;5.63;5.13;;;;;;;16.10;100.00;101177.19;5026947;28;20037;-64
2022/09/07 02:46:13;;;;;;;5.70;5.03;;;;;;;16.06;100.00;101171.88;5026422;28;20029;-64
2022/09/07 02:48:59;;;;;;;5.40;4.90;;;;;;;16.07;100.00;101168.44;5026964;28;20496;-64
2022/09/07 02:51:39;;;;;;;5.85;5.35;;;;;;;16.08;100.00;101164.94;5026780;28;20083;-64
2022/09/07 02:54:23;;;;;;;5.53;5.05;;;;;;;16.08;100.00;101175.41;5026513;28;20091;-64
2022/09/07 02:57:07;;;;;;;5.00;4.60;;;;;;;16.07;100.00;101184.13;5026668;28;20552;-64
2022/09/07 02:59:50;;;;;;;5.90;5.40;;;;;;;16.07;100.00;101178.88;5026796;28;20029;-64
2022/09/07 03:02:27;;;;;;;5.60;5.10;;;;;;;16.05;100.00;101188.44;5026450;28;20030;-64
2022/09/07 03:05:06;;;;;;;6.85;5.53;;;;;;;16.00;100.00;101184.88;5027136;28;20037;-64
2022/09/07 03:07:37;;;;;;;6.05;5.65;;;;;;;15.96;100.00;101172.56;5026104;28;20527;-64
2022/09/07 03:10:05;;;;;;;6.15;5.55;;;;;;;15.95;100.00;101163.00;5026986;28;20079;-64
2022/09/07 03:12:38;;;;;;;6.82;6.18;;;;;;;15.99;100.00;101169.16;5025798;28;20029;-64
2022/09/07 03:15:04;;;;;;;6.35;5.82;;;;;;;16.03;100.00;101171.84;5027003;28;20061;-64
2022/09/07 03:17:29;;;;;;;7.43;6.63;;;;;;;16.11;100.00;101165.84;5035736;28;20564;-64
2022/09/07 03:19:55;;;;;;;6.07;5.55;;;;;;;16.17;100.00;101163.34;5040446;28;20021;-64
2022/09/07 03:22:20;;;;;;;6.63;5.97;;;;;;;16.18;100.00;101163.34;5029170;28;20067;-64
2022/09/07 03:24:45;;;;;;;6.13;5.50;;;;;;;16.22;100.00;101156.44;5024870;28;20596;-64
2022/09/07 03:27:11;;;;;;;5.60;5.13;;;;;;;16.25;100.00;101158.19;5026582;28;20060;-65
2022/09/07 03:29:36;;;;;;;6.57;5.97;;;;;;;16.26;100.00;101159.97;5028522;28;20031;-65
2022/09/07 03:32:02;;;;;;;6.53;5.93;;;;;;;16.25;100.00;101159.09;5029245;28;20025;-65
2022/09/07 03:34:27;;;;;;;6.97;6.25;;;;;;;16.29;100.00;101166.13;5028669;28;20384;-64
2022/09/07 03:36:52;;;;;;;6.22;5.70;;;;;;;16.35;100.00;101167.06;5026458;28;20022;-64
2022/09/07 03:39:21;;;;;;;6.07;5.47;;;;;;;16.36;100.00;101155.72;5029457;28;20036;-64
2022/09/07 03:41:46;;;;;;;5.93;5.47;;;;;;;16.38;100.00;101154.03;5038601;28;20102;-64
2022/09/07 03:44:12;;;;;;;5.75;5.25;;;;;;;16.38;100.00;101154.91;5028742;28;20436;-64
2022/09/07 03:46:37;;;;;;;6.38;5.82;;;;;;;16.37;100.00;101160.13;5028407;28;20034;-64
2022/09/07 03:49:02;;;;;;;6.60;6.07;;;;;;;16.35;100.00;101165.34;5023222;28;20029;-64
2022/09/07 03:51:28;;;;;;;7.20;6.65;;;;;;;16.33;100.00;101172.28;5031909;28;20024;-64
2022/09/07 03:53:53;;;;;;;6.82;6.22;;;;;;;16.31;100.00;101166.13;5030169;28;20025;-64
2022/09/07 03:56:21;;;;;;;7.90;6.55;;;;;;;16.32;100.00;101158.31;5028687;28;20453;-64
2022/09/07 03:58:48;;;;;;;8.07;6.65;;;;;;;16.37;100.00;101165.34;5028426;28;20389;-64
2022/09/07 04:01:19;;;;;;;7.22;6.53;;;;;;;16.38;100.00;101154.91;5026216;28;20033;-64
2022/09/07 04:03:45;;;;;;;7.70;6.90;;;;;;;16.39;100.00;101147.91;5028574;28;20060;-64
2022/09/07 04:06:11;;;;;;;7.55;6.85;;;;;;;16.33;100.00;101149.59;5026829;28;20025;-65
2022/09/07 04:08:39;;;;;;;8.13;7.30;;;;;;;16.28;100.00;101146.03;5028246;28;20026;-64
2022/09/07 04:11:05;;;;;;;7.50;6.72;;;;;;;16.26;100.00;101132.06;5029533;28;20029;-64
2022/09/07 04:13:33;;;;;;;7.82;7.05;;;;;;;16.23;100.00;101125.91;5028577;28;20034;-64
2022/09/07 04:15:58;;;;;;;6.82;6.25;;;;;;;16.21;100.00;101125.91;5027643;28;20039;-65
2022/09/07 04:18:24;;;;;;;7.28;6.68;;;;;;;16.21;100.00;101118.06;5025122;28;20037;-64
2022/09/07 04:20:50;;;;;;;7.35;6.75;;;;;;;16.24;100.00;101118.13;5026992;28;20035;-65
2022/09/07 04:23:18;;;;;;;8.48;7.68;;;;;;;16.24;100.00;101112.00;5027467;28;20037;-64
2022/09/07 04:25:51;;;;;;;7.95;7.35;;;;;;;16.20;100.00;101122.44;5041044;28;20064;-65
2022/09/07 04:28:18;;;;;;;7.82;7.13;;;;;;;16.19;100.00;101115.44;5027607;28;20033;-64
2022/09/07 04:30:45;;;;;;;8.02;7.32;;;;;;;16.12;100.00;101125.81;5026966;28;20463;-65
2022/09/07 04:33:11;;;;;;;8.30;7.55;;;;;;;16.10;100.00;101137.97;5027122;28;20105;-64
2022/09/07 04:35:41;;;;;;;9.27;7.90;;;;;;;16.05;100.00;101144.00;5029439;28;20083;-64
2022/09/07 04:38:11;;;;;;;7.95;7.25;;;;;;;16.00;100.00;101139.56;5030492;28;20033;-64
2022/09/07 04:40:36;;;;;;;8.15;7.35;;;;;;;15.96;100.00;101138.59;5032558;28;20480;-64
2022/09/07 04:43:01;;;;;;;8.15;7.45;;;;;;;15.94;100.00;101141.19;5033770;28;20037;-64
2022/09/07 04:45:27;;;;;;;7.88;7.28;;;;;;;15.94;100.00;101140.31;5027794;28;20385;-64
2022/09/07 04:47:52;;;;;;;7.97;7.38;;;;;;;15.97;100.00;101125.56;5028079;28;20026;-64
2022/09/07 04:50:17;;;;;;;9.38;7.72;;;;;;;16.02;100.00;101145.69;5027575;28;20374;-64
2022/09/07 04:52:43;;;;;;;8.65;7.75;;;;;;;16.03;100.00;101140.50;5027419;28;20064;-64
2022/09/07 04:55:10;;;;;;;9.68;7.30;;;;;;;16.06;100.00;101134.44;5027093;28;20087;-64
2022/09/07 04:57:36;;;;;;;8.20;7.35;;;;;;;16.07;100.00;101137.06;5023326;28;20040;-64
2022/09/07 05:00:03;;;;;;;8.23;7.40;;;;;;;16.07;100.00;101131.84;5023355;28;20025;-64
2022/09/07 05:02:28;;;;;;;9.05;8.20;;;;;;;16.07;100.00;101134.47;5026883;28;20100;-64
2022/09/07 05:04:53;;;;;;;8.05;7.38;;;;;;;16.07;100.00;101131.84;5036780;28;20525;-64
2022/09/07 05:07:19;;;;;;;9.15;8.07;;;;;;;16.08;100.00;101128.34;5026711;28;20037;-64
2022/09/07 05:09:45;;;;;;;8.10;7.40;;;;;;;16.12;100.00;101134.50;5025291;28;20083;-64
2022/09/07 05:12:10;;;;;;;8.15;7.40;;;;;;;16.14;100.00;101129.28;5023807;28;20535;-64
2022/09/07 05:14:36;;;;;;;9.25;8.27;;;;;;;16.15;100.00;101112.78;5026570;28;20033;-64
2022/09/07 05:17:02;;;;;;;10.07;8.25;;;;;;;16.18;100.00;101118.03;5025832;28;20396;-64
2022/09/07 05:19:27;;;;;;;9.35;8.40;;;;;;;16.19;100.00;101125.03;5025603;28;20535;-64
2022/09/07 05:21:52;;;;;;;9.55;8.68;;;;;;;16.19;100.00;101123.28;5025034;28;20050;-64
2022/09/07 05:24:18;;;;;;;12.07;9.02;;;;;;;16.17;100.00;101131.97;5025062;28;20438;-64
2022/09/07 05:26:43;;;;;;;9.88;8.88;;;;;;;16.13;100.00;101133.66;5025978;28;20079;-65
2022/09/07 05:29:09;;;;;;;9.25;8.55;;;;;;;16.11;100.00;101143.22;5025042;28;20032;-65
2022/09/07 05:31:34;;;;;;;9.50;8.60;;;;;;;16.11;100.00;101142.34;5026727;28;20640;-65
2022/09/07 05:34:00;;;;;;;11.07;9.90;;;;;;;16.06;100.00;101145.75;5037292;28;20017;-65
2022/09/07 05:36:26;;;;;;;10.23;9.02;;;;;;;16.06;100.00;101144.91;5028348;28;20056;-65
2022/09/07 05:38:52;;;;;;;10.50;9.52;;;;;;;16.04;100.00;101142.25;5034914;28;20467;-65
2022/09/07 05:41:20;;;;;;;9.75;8.90;;;;;;;16.05;100.00;101137.88;5040272;28;20080;-65
2022/09/07 05:43:47;;;;;;;9.70;8.88;;;;;;;16.10;100.00;101135.34;5029362;28;20404;-65
2022/09/07 05:46:13;;;;;;;9.23;8.43;;;;;;;16.13;100.00;101135.41;5026665;28;20028;-65
2022/09/07 05:48:39;;;;;;;10.20;9.38;;;;;;;16.17;100.00;101137.19;5032692;28;20071;-64
2022/09/07 05:51:05;;;;;;;10.18;9.27;;;;;;;16.18;100.00;101145.06;5039160;28;20029;-64
2022/09/07 05:53:35;;;;;;;10.20;9.20;;;;;;;16.20;100.00;101152.91;5030039;28;20017;-64
2022/09/07 05:56:01;;;;;;;10.77;9.80;;;;;;;16.23;100.00;101152.06;5026082;28;20071;-64
2022/09/07 05:58:27;;;;;;;12.20;11.05;;;;;;;16.25;100.00;101150.34;5027449;28;20060;-64
2022/09/07 06:00:57;;;;;;;11.63;10.43;;;;;;;16.27;100.00;101144.31;5031141;28;20143;-64
2022/09/07 06:03:23;;;;;;;11.57;10.40;;;;;;;16.32;100.00;101152.19;5024365;28;20037;-64
2022/09/07 06:05:58;;;;;;;12.10;10.70;;;;;;;16.39;100.00;101158.38;5025499;28;20056;-64
2022/09/07 06:08:23;;;;;;;11.25;10.18;;;;;;;16.46;100.00;101154.97;5035149;28;20418;-64
2022/09/07 06:10:49;;;;;;;9.98;9.05;;;;;;;16.53;100.00;101158.56;5018350;28;20029;-63
2022/09/07 06:13:14;;;;;;;11.90;9.98;;;;;;;16.59;100.00;101161.25;5037268;28;20039;-63
2022/09/07 06:15:40;;;;;;;10.55;9.55;;;;;;;16.63;100.00;101163.06;5027571;28;20026;-63
2022/09/07 06:18:05;;;;;;;10.30;9.30;;;;;;;16.68;100.00;101169.22;5029111;28;20065;-64
2022/09/07 06:20:31;;;;;;;11.20;10.07;;;;;;;16.71;100.00;101165.78;5037049;28;20467;-65
2022/09/07 06:22:57;;;;;;;13.48;12.00;;;;;;;16.69;100.00;101173.56;5025240;28;20025;-64
2022/09/07 06:25:22;;;;;;;13.68;12.38;;;;;;;16.65;100.00;101176.16;5007372;28;20113;-64
2022/09/07 06:27:48;;;;;;;15.07;12.90;;;;;;;16.64;100.00;101169.16;5025251;28;20108;-64
2022/09/07 06:30:13;;;;;;;14.55;13.15;;;;;;;16.64;100.00;101171.78;5023765;28;20445;-64
2022/09/07 06:32:38;;;;;;;15.00;13.60;;;;;;;16.67;100.00;101174.44;5026036;28;20037;-64
2022/09/07 06:35:04;;;;;;;16.45;14.88;;;;;;;16.75;100.00;101178.00;5025297;28;20167;-64
2022/09/07 06:37:29;;;;;;;16.83;15.23;;;;;;;16.85;100.00;101180.72;5025262;28;20029;-64
2022/09/07 06:39:54;;;;;;;16.40;14.55;;;;;;;16.98;100.00;101184.38;5025140;28;20048;-64
2022/09/07 06:42:20;;;;;;;18.20;16.60;;;;;;;17.04;100.00;101190.53;5019712;28;20042;-64
2022/09/07 06:44:45;;;;;;;22.13;19.75;;;;;;;17.03;100.00;101194.03;5025018;28;20024;-64
2022/09/07 06:47:10;;;;;;;25.23;22.70;;;;;;;17.07;100.00;101183.59;5027619;28;20021;-64
2022/09/07 06:49:36;;;;;;;26.50;23.75;;;;;;;17.07;100.00;101183.59;5025626;28;20029;-64
2022/09/07 06:52:02;;;;;;;29.92;26.70;;;;;;;17.07;100.00;101183.59;5038873;28;20028;-64
2022/09/07 06:54:27;;;;;;;31.80;28.35;;;;;;;17.05;100.00;101181.81;5026335;28;20021;-64
2022/09/07 06:56:52;;;;;;;35.67;31.98;;;;;;;16.92;100.00;101190.41;5026697;28;20022;-64
2022/09/07 06:59:18;;;;;;;35.30;31.65;;;;;;;16.98;100.00;101190.47;5026043;28;20059;-64
2022/09/07 07:01:43;;;;;;;36.15;32.15;;;;;;;17.03;100.00;101191.41;5026367;28;20033;-64
2022/09/07 07:04:08;;;;;;;36.67;31.50;;;;;;;17.10;100.00;101197.63;5029839;28;20094;-64
2022/09/07 07:06:36;;;;;;;35.78;32.15;;;;;;;17.18;100.00;101187.22;5029626;28;20025;-64
2022/09/07 07:09:03;;;;;;;34.65;31.05;;;;;;;17.24;100.00;101192.53;5029465;28;20481;-64
2022/09/07 07:11:30;;;;;;;34.80;31.30;;;;;;;17.28;100.00;101190.81;5026006;28;20017;-64
2022/09/07 07:13:56;;;;;;;34.47;30.95;;;;;;;17.33;100.00;101191.72;5028472;28;20014;-64
2022/09/07 07:16:21;;;;;;;36.72;32.78;;;;;;;17.61;100.00;101191.13;5028734;28;20022;-64
2022/09/07 07:18:50;;;;;;;34.72;31.23;;;;;;;17.80;100.00;101191.25;5028574;28;20171;-65
2022/09/07 07:21:16;;;;;;;34.42;30.92;;;;;;;18.29;100.00;101187.22;5028157;28;20425;-64
2022/09/07 07:23:41;;;;;;;32.72;29.35;;;;;;;18.85;100.00;101184.84;5033487;28;20283;-64
2022/09/07 07:26:11;;;;;;;31.58;28.50;;;;;;;19.19;100.00;101184.91;5043207;28;20021;-64
2022/09/07 07:28:36;;;;;;;30.80;27.67;;;;;;;19.56;100.00;101181.44;5029143;28;20469;-64
2022/09/07 07:31:04;;;;;;;30.23;27.17;;;;;;;19.87;100.00;101193.69;5029051;28;20075;-64
2022/09/07 07:33:34;;;;;;;27.70;24.95;;;;;;;20.18;100.00;101197.16;5032887;28;20112;-64
2022/09/07 07:36:24;;;;;;;28.17;25.55;;;;;;;20.25;100.00;101204.16;5035867;28;20378;-64
2022/09/07 07:38:51;;;;;;;25.98;23.40;;;;;;;20.48;100.00;101208.47;5025729;28;20029;-65
2022/09/07 07:41:20;;;;;;;23.40;20.73;;;;;;;20.70;100.00;101200.50;5039226;28;20189;-64
2022/09/07 07:43:46;;;;;;;23.75;21.60;;;;;;;20.76;100.00;101206.59;5032345;28;20074;-65
2022/09/07 07:46:12;;;;;;;22.98;20.88;;;;;;;21.07;100.00;101207.34;5029086;28;20021;-65
2022/09/07 07:48:38;;;;;;;23.38;21.17;;;;;;;21.20;99.40;101205.50;5029728;28;20048;-65
2022/09/07 07:51:05;;;;;;;23.52;21.20;;;;;;;21.17;99.65;101209.06;5029211;28;20029;-65
2022/09/07 07:53:33;;;;;;;22.58;20.48;;;;;;;21.30;99.96;101212.47;5029459;28;20021;-65
2022/09/07 07:55:59;;;;;;;24.38;21.98;;;;;;;21.05;98.33;101204.72;5029622;28;20180;-65
2022/09/07 07:58:26;;;;;;;21.75;19.92;;;;;;;21.24;98.85;101204.63;5029000;28;20435;-65
2022/09/07 08:00:53;;;;;;;23.38;21.13;;;;;;;21.48;98.04;101205.28;5027907;28;20021;-65
2022/09/07 08:03:19;;;;;;;21.52;19.65;;;;;;;21.69;96.44;101208.66;5029432;28;20071;-65
2022/09/07 08:05:45;;;;;;;21.67;19.65;;;;;;;21.90;95.02;101218.16;5032528;28;20488;-64
2022/09/07 08:08:10;;;;;;;21.05;18.98;;;;;;;22.23;91.47;101220.47;5038293;28;20068;-65
2022/09/07 08:10:36;;;;;;;19.73;17.75;;;;;;;22.48;91.86;101222.84;5028414;28;20017;-65
2022/09/07 08:13:02;;;;;;;19.23;17.52;;;;;;;22.64;88.70;101220.03;5028996;28;20531;-65
2022/09/07 08:15:27;;;;;;;18.67;16.98;;;;;;;22.72;85.35;101223.44;5029186;28;20021;-64
2022/09/07 08:17:53;;;;;;;20.80;19.00;;;;;;;22.73;86.64;101224.31;5029278;28;20700;-64
2022/09/07 08:20:18;;;;;;;19.60;17.90;;;;;;;22.81;86.64;101226.88;5029059;28;20041;-65
2022/09/07 08:22:43;;;;;;;18.70;16.77;;;;;;;23.08;84.54;101225.59;5028755;28;20113;-65
2022/09/07 08:25:09;;;;;;;19.42;17.40;;;;;;;23.22;82.70;101229.81;5028888;28;20462;-65
2022/09/07 08:27:34;;;;;;;17.40;15.82;;;;;;;23.34;81.84;101234.91;5028326;28;20037;-65
2022/09/07 08:30:01;;;;;;;17.65;16.17;;;;;;;23.35;80.51;101233.16;5026987;28;20052;-65
2022/09/07 08:32:29;;;;;;;16.95;15.55;;;;;;;23.23;80.84;101228.91;5028454;28;20075;-65
2022/09/07 08:34:55;;;;;;;15.70;14.18;;;;;;;23.20;81.25;101227.19;5010754;28;20108;-65
2022/09/07 08:37:20;;;;;;;15.85;14.45;;;;;;;23.32;79.98;101233.19;5028674;28;20801;-65
2022/09/07 08:39:46;;;;;;;16.08;14.45;;;;;;;23.45;79.98;101241.84;5028417;28;20711;-65
2022/09/07 08:42:56;;;;;;;15.82;14.15;;;;;;;23.62;78.66;101236.25;5027793;28;20128;-65
2022/09/07 08:45:47;;;;;;;16.85;15.38;;;;;;;23.76;79.70;101230.75;4912903;29;20040;-65
2022/09/07 08:48:17;;;;;;;13.15;11.95;;;;;;;23.81;76.53;101230.66;5023780;28;20033;-65
2022/09/07 08:50:57;;;;;;;12.40;11.40;;;;;;;23.94;75.77;101236.63;5028484;28;20025;-65
2022/09/07 08:53:24;;;;;;;12.98;11.85;;;;;;;24.12;73.76;101240.69;5009914;28;20029;-65
2022/09/07 08:55:55;;;;;;;12.13;11.15;;;;;;;24.27;73.51;101238.69;5027805;28;20025;-65
2022/09/07 08:58:31;;;;;;;13.18;11.90;;;;;;;24.40;73.33;101234.91;5028931;28;20032;-65
2022/09/07 09:00:57;;;;;;;12.70;10.30;;;;;;;24.45;72.85;101238.31;5028512;28;20029;-66
2022/09/07 09:03:28;;;;;;;11.75;10.63;;;;;;;24.41;72.63;101236.63;5028108;28;20116;-66
2022/09/07 09:06:04;;;;;;;;;;;;;;;24.48;72.80;101236.53;5027247;28;20051;-65
2022/09/07 09:08:36;;;;;;;11.75;10.63;;;;;;;24.65;71.48;101239.69;5034422;28;19909;-65
2022/09/07 09:11:15;;;;;;;10.30;9.50;;;;;;;24.79;71.09;101239.38;5028207;28;20021;-65
2022/09/07 09:14:17;;;;;;;9.70;8.90;;;;;;;24.81;70.37;101240.22;5025448;28;20029;-65
2022/09/07 09:16:48;;;;;;;9.85;9.05;;;;;;;24.82;69.90;101243.75;5024803;28;20032;-66
2022/09/07 09:19:37;;;;;;;9.23;8.40;;;;;;;24.93;70.11;101235.63;5027011;28;20033;-65
2022/09/07 09:22:12;;;;;;;9.32;8.57;;;;;;;25.06;70.21;101236.19;5027244;28;20037;-65
2022/09/07 09:24:41;;;;;;;8.13;7.43;;;;;;;25.18;69.34;101243.84;5024621;28;20030;-66
2022/09/07 09:27:08;;;;;;;8.07;7.32;;;;;;;25.30;68.95;101237.41;5025946;28;20124;-66
2022/09/07 09:29:33;;;;;;;9.88;8.63;;;;;;;25.38;66.90;101237.19;5026955;28;20032;-66
2022/09/07 09:31:59;;;;;;;8.18;7.47;;;;;;;25.00;66.43;101239.00;5026939;28;20389;-66
2022/09/07 09:34:24;;;;;;;7.32;6.70;;;;;;;24.82;68.18;101230.50;5027222;28;20057;-66
2022/09/07 09:36:52;;;;;;;8.00;7.25;;;;;;;24.73;67.30;101241.31;5030012;28;20029;-66
2022/09/07 09:39:25;;;;;;;8.15;6.50;;;;;;;24.49;69.50;101238.25;5027207;28;20088;-66
2022/09/07 09:41:53;;;;;;;7.80;7.10;;;;;;;24.33;70.22;101243.84;5026645;28;20722;-66
2022/09/07 09:44:20;;;;;;;7.38;6.78;;;;;;;24.22;70.30;101239.66;5032613;28;20058;-66
2022/09/07 09:46:49;;;;;;;7.60;6.20;;;;;;;24.17;70.25;101238.84;5032188;28;20063;-66
2022/09/07 09:49:18;;;;;;;5.32;4.80;;;;;;;24.20;67.01;101238.81;5026754;28;20044;-65
2022/09/07 09:51:51;;;;;;;5.70;4.53;;;;;;;24.30;67.67;101238.63;5026481;28;20540;-65
2022/09/07 09:54:27;;;;;;;4.43;3.55;;;;;;;24.51;66.50;101237.31;5026471;28;20027;-65
2022/09/07 09:56:53;;;;;;;5.85;4.30;;;;;;;24.57;65.10;101242.47;5025805;28;20025;-65
2022/09/07 09:59:22;;;;;;;7.05;5.10;;;;;;;24.54;65.09;101237.25;5025707;28;20040;-65
2022/09/07 10:01:49;;;;;;;10.05;4.93;;;;;;;24.50;65.63;101230.28;5024677;28;20032;-65
2022/09/07 10:04:29;;;;;;;5.68;3.95;;;;;;;24.36;65.72;101232.34;5027351;28;20420;-65
2022/09/07 10:07:20;;;;;;;7.18;3.45;;;;;;;24.28;64.34;101229.84;5024862;28;20538;-66
2022/09/07 10:09:50;;;;;;;;;;;;;;;23.99;65.36;101230.34;5026904;28;20423;-65
2022/09/07 10:12:31;;;;;;;6.15;3.25;;;;;;;23.97;66.81;101228.63;5026695;28;19924;-66
2022/09/07 10:14:59;;;;;;;5.60;3.65;;;;;;;24.02;67.63;101231.16;5026442;28;20026;-66
2022/09/07 10:17:36;;;;;;;5.10;2.97;;;;;;;23.98;66.20;101225.94;5025372;28;20083;-66
2022/09/07 10:20:30;;;;;;;4.72;3.05;;;;;;;24.03;65.48;101215.28;5026024;28;20488;-65
2022/09/07 10:22:58;;;;;;;5.30;3.35;;;;;;;24.05;65.72;101216.09;5023289;28;20568;-65
2022/09/07 10:25:43;;;;;;;7.60;2.95;;;;;;;24.04;66.01;101222.31;5025547;28;20030;-65
2022/09/07 10:28:14;;;;;;;4.60;2.33;;;;;;;24.05;65.18;101212.59;5026007;28;20036;-65
2022/09/07 10:31:11;;;;;;;4.20;2.28;;;;;;;24.26;64.68;101210.47;5025901;28;20112;-65
2022/09/07 10:33:45;;;;;;;6.65;2.65;;;;;;;24.48;63.26;101212.69;5026325;28;20033;-65
2022/09/07 10:36:24;;;;;;;4.65;2.50;;;;;;;24.63;62.49;101207.06;5022036;28;20017;-65
2022/09/07 10:39:13;;;;;;;4.72;2.40;;;;;;;24.83;62.92;101217.22;5035402;28;20665;-65
2022/09/07 10:42:03;;;;;;;4.80;2.17;;;;;;;24.96;61.44;101214.34;5027152;28;20120;-65
2022/09/07 10:44:56;;;;;;;3.85;1.85;;;;;;;25.14;61.35;101205.09;5029411;28;20036;-65
2022/09/07 10:47:30;;;;;;;4.03;1.80;;;;;;;25.37;61.24;101206.31;5025526;28;20041;-65
2022/09/07 10:50:02;;;;;;;3.75;1.45;;;;;;;25.54;58.88;101197.91;5036296;28;20031;-65
2022/09/07 10:52:38;;;;;;;2.90;1.40;;;;;;;25.74;58.82;101198.34;5023607;28;20029;-65
2022/09/07 10:55:03;;;;;;;5.25;1.55;;;;;;;25.81;58.35;101191.97;5026551;28;20481;-64
2022/09/07 10:57:31;;;;;;;4.80;1.77;;;;;;;25.90;58.36;101194.34;5028114;28;20032;-65
2022/09/07 11:00:09;;;;;;;5.75;1.70;;;;;;;25.86;57.61;101198.03;5028626;28;20448;-64
2022/09/07 11:03:02;;;;;;;4.07;1.80;;;;;;;25.32;56.39;101196.72;5029170;28;20496;-65
2022/09/07 11:05:47;;;;;;;5.50;1.40;;;;;;;25.18;58.19;101198.78;5028503;28;20018;-65
2022/09/07 11:08:40;;;;;;;3.17;1.33;;;;;;;25.05;58.99;101200.00;5028571;28;20028;-64
2022/09/07 11:11:23;;;;;;;4.25;1.65;;;;;;;24.96;58.83;101194.91;5027033;28;20613;-65
2022/09/07 11:13:53;;;;;;;5.47;1.80;;;;;;;24.72;58.62;101197.19;5028608;28;20040;-65
2022/09/07 11:16:25;;;;;;;4.50;1.23;;;;;;;24.76;57.60;101193.53;5029142;28;20025;-65
2022/09/07 11:19:01;;;;;;;4.25;1.50;;;;;;;24.37;58.75;101192.59;5029705;28;20473;-64
2022/09/07 11:21:39;;;;;;;5.32;1.90;;;;;;;24.63;59.14;101196.47;5028019;28;20125;-65
2022/09/07 11:24:24;;;;;;;4.10;1.40;;;;;;;24.69;58.23;101187.50;5026466;28;20516;-65
2022/09/07 11:26:55;;;;;;;4.18;1.45;;;;;;;24.94;56.24;101185.22;5028948;28;20084;-65
2022/09/07 11:29:33;;;;;;;5.35;1.48;;;;;;;24.88;56.71;101187.97;5029661;28;20477;-65
2022/09/07 11:32:24;;;;;;;4.60;1.77;;;;;;;24.96;55.10;101187.84;5026607;28;20090;-65